MMAA/ACA METAR and TAF weather

Enter ICAO airport designator
Station Type Date Time Source
MMAA METAR 2020/09/23 18:46 UTC NOAA

MMAA 231846Z 23005KT 7SM SCT300 32/25 A2985 RMK 8/002 HZY


Station Type Date Time Source
MMAA Decoded METAR 2020/09/23 18:46 UTC NOAA

Acapulco / G. Alvarez, Mexico (MMAA) 16-46N 099-45W
Sep 23, 2020 - 02:46 PM EDT / 2020.09.23 1846 UTC
Wind: from the SW (230 degrees) at 6 MPH (5 KT):0
Visibility: 7 mile(s):0
Sky conditions: partly cloudy
Temperature: 89 F (32 C)
Heat index: 100.6 F (38.1 C):1
Dew Point: 77 F (25 C)
Relative Humidity: 66%
Pressure (altimeter): 29.85 in. Hg (1010 hPa)
ob: MMAA 231846Z 23005KT 7SM SCT300 32/25 A2985 RMK 8/002 HZY
cycle: 19

Station Type Date Time Source
MMAA TAF 2020/09/23 18:25 UTC NOAA

TAF MMAA 231718Z 2318/2424 24008KT P6SM SCT020 SCT300 TX32/2319Z TN28/2412Z
FM232200 24010KT P6SM SCT020CB BKN300
TEMPO 2323/2403 5SM TSRA BKN020CB
FM240600 32005KT P6SM VC -RA BKN020 BKN080 PROB40 2412/2415 5SM -RA

Example: see airport list